sensor_id;sensor_type;location;lat;lon;timestamp;temperature;humidity
8856;DHT22;4464;50.882;4.730;2024-03-07T00:00:46;4.80;99.90
8856;DHT22;4464;50.882;4.730;2024-03-07T00:03:13;4.80;99.90
8856;DHT22;4464;50.882;4.730;2024-03-07T00:05:39;4.70;99.90
8856;DHT22;4464;50.882;4.730;2024-03-07T00:08:08;4.70;99.90
8856;DHT22;4464;50.882;4.730;2024-03-07T00:10:38;4.70;99.90
8856;DHT22;4464;50.882;4.730;2024-03-07T00:13:08;4.70;99.90
8856;DHT22;4464;50.882;4.730;2024-03-07T00:15:36;4.70;99.90
8856;DHT22;4464;50.882;4.730;2024-03-07T00:18:05;4.70;99.90
8856;DHT22;4464;50.882;4.730;2024-03-07T00:20:41;4.70;99.90
8856;DHT22;4464;50.882;4.730;2024-03-07T00:23:08;4.60;99.90
8856;DHT22;4464;50.882;4.730;2024-03-07T00:25:34;4.60;99.90
8856;DHT22;4464;50.882;4.730;2024-03-07T00:28:00;4.60;99.90
8856;DHT22;4464;50.882;4.730;2024-03-07T00:30:29;4.60;99.90
8856;DHT22;4464;50.882;4.730;2024-03-07T00:32:56;4.60;99.90
8856;DHT22;4464;50.882;4.730;2024-03-07T00:35:23;4.50;99.90
8856;DHT22;4464;50.882;4.730;2024-03-07T00:37:58;4.50;99.90
8856;DHT22;4464;50.882;4.730;2024-03-07T00:40:27;4.50;99.90
8856;DHT22;4464;50.882;4.730;2024-03-07T00:42:55;4.50;99.90
8856;DHT22;4464;50.882;4.730;2024-03-07T00:45:21;4.50;99.90
8856;DHT22;4464;50.882;4.730;2024-03-07T00:47:48;4.50;99.90
8856;DHT22;4464;50.882;4.730;2024-03-07T00:50:14;4.50;99.90
8856;DHT22;4464;50.882;4.730;2024-03-07T00:52:40;4.40;99.90
8856;DHT22;4464;50.882;4.730;2024-03-07T00:55:08;4.40;99.90
8856;DHT22;4464;50.882;4.730;2024-03-07T00:57:35;4.50;99.90
8856;DHT22;4464;50.882;4.730;2024-03-07T01:00:01;4.40;99.90
8856;DHT22;4464;50.882;4.730;2024-03-07T01:02:27;4.40;99.90
8856;DHT22;4464;50.882;4.730;2024-03-07T01:04:53;4.30;99.90
8856;DHT22;4464;50.882;4.730;2024-03-07T01:07:20;4.30;99.90
8856;DHT22;4464;50.882;4.730;2024-03-07T01:09:49;4.30;99.90
8856;DHT22;4464;50.882;4.730;2024-03-07T01:12:16;4.20;99.90
8856;DHT22;4464;50.882;4.730;2024-03-07T01:14:45;4.30;99.90
8856;DHT22;4464;50.882;4.730;2024-03-07T01:17:11;4.30;99.90
8856;DHT22;4464;50.882;4.730;2024-03-07T01:19:39;4.30;99.90
8856;DHT22;4464;50.882;4.730;2024-03-07T01:22:05;4.20;99.90
8856;DHT22;4464;50.882;4.730;2024-03-07T01:24:31;4.20;99.90
8856;DHT22;4464;50.882;4.730;2024-03-07T01:26:58;4.10;99.90
8856;DHT22;4464;50.882;4.730;2024-03-07T01:29:25;4.10;99.90
8856;DHT22;4464;50.882;4.730;2024-03-07T01:31:51;4.10;99.90
8856;DHT22;4464;50.882;4.730;2024-03-07T01:34:19;3.90;99.90
8856;DHT22;4464;50.882;4.730;2024-03-07T01:36:45;3.90;99.90
8856;DHT22;4464;50.882;4.730;2024-03-07T01:39:13;3.90;99.90
8856;DHT22;4464;50.882;4.730;2024-03-07T01:41:39;3.90;99.90
8856;DHT22;4464;50.882;4.730;2024-03-07T01:44:06;3.90;99.90
8856;DHT22;4464;50.882;4.730;2024-03-07T01:46:33;3.80;99.90
8856;DHT22;4464;50.882;4.730;2024-03-07T01:48:59;3.80;99.90
8856;DHT22;4464;50.882;4.730;2024-03-07T01:51:25;3.80;99.90
8856;DHT22;4464;50.882;4.730;2024-03-07T01:53:55;3.80;99.90
8856;DHT22;4464;50.882;4.730;2024-03-07T01:56:21;3.70;99.90
8856;DHT22;4464;50.882;4.730;2024-03-07T01:58:47;3.70;99.90
8856;DHT22;4464;50.882;4.730;2024-03-07T02:01:17;3.70;99.90
8856;DHT22;4464;50.882;4.730;2024-03-07T02:03:46;3.70;99.90
8856;DHT22;4464;50.882;4.730;2024-03-07T02:06:13;3.70;99.90
8856;DHT22;4464;50.882;4.730;2024-03-07T02:08:39;3.60;99.90
8856;DHT22;4464;50.882;4.730;2024-03-07T02:11:05;3.60;99.90
8856;DHT22;4464;50.882;4.730;2024-03-07T02:13:37;3.50;99.90
8856;DHT22;4464;50.882;4.730;2024-03-07T02:16:03;3.50;99.90
8856;DHT22;4464;50.882;4.730;2024-03-07T02:18:30;3.50;99.90
8856;DHT22;4464;50.882;4.730;2024-03-07T02:20:56;3.50;99.90
8856;DHT22;4464;50.882;4.730;2024-03-07T02:23:22;3.40;99.90
8856;DHT22;4464;50.882;4.730;2024-03-07T02:25:48;3.50;99.90
8856;DHT22;4464;50.882;4.730;2024-03-07T02:28:14;3.50;99.90
8856;DHT22;4464;50.882;4.730;2024-03-07T02:30:43;3.50;99.90
8856;DHT22;4464;50.882;4.730;2024-03-07T02:33:11;3.50;99.90
8856;DHT22;4464;50.882;4.730;2024-03-07T02:35:37;3.40;99.90
8856;DHT22;4464;50.882;4.730;2024-03-07T02:38:06;3.40;99.90
8856;DHT22;4464;50.882;4.730;2024-03-07T02:40:32;3.40;99.90
8856;DHT22;4464;50.882;4.730;2024-03-07T02:42:58;3.40;99.90
8856;DHT22;4464;50.882;4.730;2024-03-07T02:45:24;3.50;99.90
8856;DHT22;4464;50.882;4.730;2024-03-07T02:47:54;3.40;99.90
8856;DHT22;4464;50.882;4.730;2024-03-07T02:50:19;3.40;99.90
8856;DHT22;4464;50.882;4.730;2024-03-07T02:52:47;3.40;99.90
8856;DHT22;4464;50.882;4.730;2024-03-07T02:55:16;3.40;99.90
8856;DHT22;4464;50.882;4.730;2024-03-07T02:57:42;3.40;99.90
8856;DHT22;4464;50.882;4.730;2024-03-07T03:00:09;3.30;99.90
8856;DHT22;4464;50.882;4.730;2024-03-07T03:02:52;3.30;99.90
8856;DHT22;4464;50.882;4.730;2024-03-07T03:05:18;3.20;99.90
8856;DHT22;4464;50.882;4.730;2024-03-07T03:07:45;3.20;99.90
8856;DHT22;4464;50.882;4.730;2024-03-07T03:10:22;3.20;99.90
8856;DHT22;4464;50.882;4.730;2024-03-07T03:12:58;3.20;99.90
8856;DHT22;4464;50.882;4.730;2024-03-07T03:15:25;3.20;99.90
8856;DHT22;4464;50.882;4.730;2024-03-07T03:17:51;3.20;99.90
8856;DHT22;4464;50.882;4.730;2024-03-07T03:20:17;3.10;99.90
8856;DHT22;4464;50.882;4.730;2024-03-07T03:23:00;3.10;99.90
8856;DHT22;4464;50.882;4.730;2024-03-07T03:25:26;3.10;99.90
8856;DHT22;4464;50.882;4.730;2024-03-07T03:27:52;3.10;99.90
8856;DHT22;4464;50.882;4.730;2024-03-07T03:30:18;3.10;99.90
8856;DHT22;4464;50.882;4.730;2024-03-07T03:32:46;3.10;99.90
8856;DHT22;4464;50.882;4.730;2024-03-07T03:35:12;3.10;99.90
8856;DHT22;4464;50.882;4.730;2024-03-07T03:37:44;3.10;99.90
8856;DHT22;4464;50.882;4.730;2024-03-07T03:40:10;3.10;99.90
8856;DHT22;4464;50.882;4.730;2024-03-07T03:42:38;3.00;99.90
8856;DHT22;4464;50.882;4.730;2024-03-07T03:45:08;3.00;99.90
8856;DHT22;4464;50.882;4.730;2024-03-07T03:47:35;3.00;99.90
8856;DHT22;4464;50.882;4.730;2024-03-07T03:50:05;3.00;99.90
8856;DHT22;4464;50.882;4.730;2024-03-07T03:52:32;2.90;99.90
8856;DHT22;4464;50.882;4.730;2024-03-07T03:55:02;2.90;99.90
8856;DHT22;4464;50.882;4.730;2024-03-07T03:57:30;2.90;99.90
8856;DHT22;4464;50.882;4.730;2024-03-07T03:59:56;2.90;99.90
8856;DHT22;4464;50.882;4.730;2024-03-07T04:02:25;2.90;99.90
8856;DHT22;4464;50.882;4.730;2024-03-07T04:04:51;2.90;99.90
8856;DHT22;4464;50.882;4.730;2024-03-07T04:07:21;2.90;99.90
8856;DHT22;4464;50.882;4.730;2024-03-07T04:09:47;2.90;99.90
8856;DHT22;4464;50.882;4.730;2024-03-07T04:12:14;2.90;99.90
8856;DHT22;4464;50.882;4.730;2024-03-07T04:14:41;2.90;99.90
8856;DHT22;4464;50.882;4.730;2024-03-07T04:17:08;2.90;99.90
8856;DHT22;4464;50.882;4.730;2024-03-07T04:19:41;2.90;99.90
8856;DHT22;4464;50.882;4.730;2024-03-07T04:22:08;2.90;99.90
8856;DHT22;4464;50.882;4.730;2024-03-07T04:24:35;2.90;99.90
8856;DHT22;4464;50.882;4.730;2024-03-07T04:27:04;2.80;99.90
8856;DHT22;4464;50.882;4.730;2024-03-07T04:29:34;2.70;99.90
8856;DHT22;4464;50.882;4.730;2024-03-07T04:32:01;2.70;99.90
8856;DHT22;4464;50.882;4.730;2024-03-07T04:34:27;2.90;99.90
8856;DHT22;4464;50.882;4.730;2024-03-07T04:37:00;2.70;99.90
8856;DHT22;4464;50.882;4.730;2024-03-07T04:39:29;2.80;99.90
8856;DHT22;4464;50.882;4.730;2024-03-07T04:42:02;2.80;99.90
8856;DHT22;4464;50.882;4.730;2024-03-07T04:44:29;2.80;99.90
8856;DHT22;4464;50.882;4.730;2024-03-07T04:46:58;2.80;99.90
8856;DHT22;4464;50.882;4.730;2024-03-07T04:49:30;2.70;99.90
8856;DHT22;4464;50.882;4.730;2024-03-07T04:52:02;2.70;99.90
8856;DHT22;4464;50.882;4.730;2024-03-07T04:54:29;2.70;99.90
8856;DHT22;4464;50.882;4.730;2024-03-07T04:56:56;2.80;99.90
8856;DHT22;4464;50.882;4.730;2024-03-07T04:59:22;2.70;99.90
8856;DHT22;4464;50.882;4.730;2024-03-07T05:01:49;2.80;99.90
8856;DHT22;4464;50.882;4.730;2024-03-07T05:04:18;2.70;99.90
8856;DHT22;4464;50.882;4.730;2024-03-07T05:06:45;2.70;99.90
8856;DHT22;4464;50.882;4.730;2024-03-07T05:09:14;2.80;99.90
8856;DHT22;4464;50.882;4.730;2024-03-07T05:11:51;2.80;99.90
8856;DHT22;4464;50.882;4.730;2024-03-07T05:14:20;2.80;99.90
8856;DHT22;4464;50.882;4.730;2024-03-07T05:16:47;2.90;99.90
8856;DHT22;4464;50.882;4.730;2024-03-07T05:19:34;3.00;99.90
8856;DHT22;4464;50.882;4.730;2024-03-07T05:22:00;3.10;99.90
8856;DHT22;4464;50.882;4.730;2024-03-07T05:24:26;3.10;99.90
8856;DHT22;4464;50.882;4.730;2024-03-07T05:26:54;3.20;99.90
8856;DHT22;4464;50.882;4.730;2024-03-07T05:29:20;3.20;99.90
8856;DHT22;4464;50.882;4.730;2024-03-07T05:31:46;3.20;99.90
8856;DHT22;4464;50.882;4.730;2024-03-07T05:34:13;3.30;99.90
8856;DHT22;4464;50.882;4.730;2024-03-07T05:36:46;3.50;99.90
8856;DHT22;4464;50.882;4.730;2024-03-07T05:39:16;3.50;99.90
8856;DHT22;4464;50.882;4.730;2024-03-07T05:41:44;3.50;99.90
8856;DHT22;4464;50.882;4.730;2024-03-07T05:44:14;3.60;99.90
8856;DHT22;4464;50.882;4.730;2024-03-07T05:46:41;3.60;99.90
8856;DHT22;4464;50.882;4.730;2024-03-07T05:49:15;3.60;99.90
8856;DHT22;4464;50.882;4.730;2024-03-07T05:51:47;3.70;99.90
8856;DHT22;4464;50.882;4.730;2024-03-07T05:54:13;3.70;99.90
8856;DHT22;4464;50.882;4.730;2024-03-07T05:56:39;3.70;99.90
8856;DHT22;4464;50.882;4.730;2024-03-07T05:59:07;3.80;99.90
8856;DHT22;4464;50.882;4.730;2024-03-07T06:01:36;3.90;99.90
8856;DHT22;4464;50.882;4.730;2024-03-07T06:04:06;4.00;99.90
8856;DHT22;4464;50.882;4.730;2024-03-07T06:06:33;4.10;99.90
8856;DHT22;4464;50.882;4.730;2024-03-07T06:09:00;4.20;99.90
8856;DHT22;4464;50.882;4.730;2024-03-07T06:11:28;4.30;99.90
8856;DHT22;4464;50.882;4.730;2024-03-07T06:13:53;4.30;99.90
8856;DHT22;4464;50.882;4.730;2024-03-07T06:16:19;4.30;99.90
8856;DHT22;4464;50.882;4.730;2024-03-07T06:18:46;4.40;99.90
8856;DHT22;4464;50.882;4.730;2024-03-07T06:21:14;4.40;99.90
8856;DHT22;4464;50.882;4.730;2024-03-07T06:23:42;4.40;99.90
8856;DHT22;4464;50.882;4.730;2024-03-07T06:26:13;4.50;99.90
8856;DHT22;4464;50.882;4.730;2024-03-07T06:28:42;4.50;99.90
8856;DHT22;4464;50.882;4.730;2024-03-07T06:31:08;4.60;99.90
8856;DHT22;4464;50.882;4.730;2024-03-07T06:33:34;4.80;99.90
8856;DHT22;4464;50.882;4.730;2024-03-07T06:36:00;4.70;99.90
8856;DHT22;4464;50.882;4.730;2024-03-07T06:38:30;4.80;99.90
8856;DHT22;4464;50.882;4.730;2024-03-07T06:40:56;4.80;99.90
8856;DHT22;4464;50.882;4.730;2024-03-07T06:43:22;4.80;99.90
8856;DHT22;4464;50.882;4.730;2024-03-07T06:45:50;4.80;99.90
8856;DHT22;4464;50.882;4.730;2024-03-07T06:48:20;4.90;99.90
8856;DHT22;4464;50.882;4.730;2024-03-07T06:50:48;5.00;99.90
8856;DHT22;4464;50.882;4.730;2024-03-07T06:53:14;5.00;99.90
8856;DHT22;4464;50.882;4.730;2024-03-07T06:55:40;5.00;99.90
8856;DHT22;4464;50.882;4.730;2024-03-07T06:58:05;5.00;99.90
8856;DHT22;4464;50.882;4.730;2024-03-07T07:00:34;5.00;99.90
8856;DHT22;4464;50.882;4.730;2024-03-07T07:03:02;4.80;99.90
8856;DHT22;4464;50.882;4.730;2024-03-07T07:05:31;4.70;99.90
8856;DHT22;4464;50.882;4.730;2024-03-07T07:07:59;4.70;99.90
8856;DHT22;4464;50.882;4.730;2024-03-07T07:10:26;4.70;99.90
8856;DHT22;4464;50.882;4.730;2024-03-07T07:12:52;4.70;99.90
8856;DHT22;4464;50.882;4.730;2024-03-07T07:15:22;4.70;99.90
8856;DHT22;4464;50.882;4.730;2024-03-07T07:17:49;4.70;99.90
8856;DHT22;4464;50.882;4.730;2024-03-07T07:20:17;4.70;99.90
8856;DHT22;4464;50.882;4.730;2024-03-07T07:22:45;4.80;99.90
8856;DHT22;4464;50.882;4.730;2024-03-07T07:25:12;4.80;99.90
8856;DHT22;4464;50.882;4.730;2024-03-07T07:27:45;4.70;99.90
8856;DHT22;4464;50.882;4.730;2024-03-07T07:30:12;4.80;99.90
8856;DHT22;4464;50.882;4.730;2024-03-07T07:32:41;4.70;99.90
8856;DHT22;4464;50.882;4.730;2024-03-07T07:35:12;4.90;99.90
8856;DHT22;4464;50.882;4.730;2024-03-07T07:37:39;4.90;99.90
8856;DHT22;4464;50.882;4.730;2024-03-07T07:40:06;5.00;99.90
8856;DHT22;4464;50.882;4.730;2024-03-07T07:42:37;5.10;99.90
8856;DHT22;4464;50.882;4.730;2024-03-07T07:45:10;5.20;99.90
8856;DHT22;4464;50.882;4.730;2024-03-07T07:47:38;5.20;99.90
8856;DHT22;4464;50.882;4.730;2024-03-07T07:50:10;5.30;99.90
8856;DHT22;4464;50.882;4.730;2024-03-07T07:52:53;5.40;99.90
8856;DHT22;4464;50.882;4.730;2024-03-07T07:55:20;5.40;99.90
8856;DHT22;4464;50.882;4.730;2024-03-07T07:57:51;5.50;99.90
8856;DHT22;4464;50.882;4.730;2024-03-07T08:00:26;5.60;99.90
8856;DHT22;4464;50.882;4.730;2024-03-07T08:03:09;5.60;99.90
8856;DHT22;4464;50.882;4.730;2024-03-07T08:05:37;5.70;99.90
8856;DHT22;4464;50.882;4.730;2024-03-07T08:08:05;5.80;99.90
8856;DHT22;4464;50.882;4.730;2024-03-07T08:10:36;5.80;99.90
8856;DHT22;4464;50.882;4.730;2024-03-07T08:13:03;5.80;99.90
8856;DHT22;4464;50.882;4.730;2024-03-07T08:15:30;5.90;99.90
8856;DHT22;4464;50.882;4.730;2024-03-07T08:17:59;6.00;99.90
8856;DHT22;4464;50.882;4.730;2024-03-07T08:20:26;6.00;99.90
8856;DHT22;4464;50.882;4.730;2024-03-07T08:22:55;6.00;99.90
8856;DHT22;4464;50.882;4.730;2024-03-07T08:25:24;6.00;99.90
8856;DHT22;4464;50.882;4.730;2024-03-07T08:27:54;6.10;99.90
8856;DHT22;4464;50.882;4.730;2024-03-07T08:30:20;6.20;99.90
8856;DHT22;4464;50.882;4.730;2024-03-07T08:32:54;6.40;99.90
8856;DHT22;4464;50.882;4.730;2024-03-07T08:35:21;6.50;99.90
8856;DHT22;4464;50.882;4.730;2024-03-07T08:37:48;6.60;99.90
8856;DHT22;4464;50.882;4.730;2024-03-07T08:40:25;6.70;99.90
8856;DHT22;4464;50.882;4.730;2024-03-07T08:42:52;6.80;99.90
8856;DHT22;4464;50.882;4.730;2024-03-07T08:45:22;6.90;99.90
8856;DHT22;4464;50.882;4.730;2024-03-07T08:47:49;7.00;99.90
8856;DHT22;4464;50.882;4.730;2024-03-07T08:50:16;7.10;99.90
8856;DHT22;4464;50.882;4.730;2024-03-07T08:52:48;7.50;99.90
8856;DHT22;4464;50.882;4.730;2024-03-07T08:55:24;7.80;99.90
8856;DHT22;4464;50.882;4.730;2024-03-07T08:57:53;8.10;99.90
8856;DHT22;4464;50.882;4.730;2024-03-07T09:00:22;8.40;99.90
8856;DHT22;4464;50.882;4.730;2024-03-07T09:02:55;8.30;99.90
8856;DHT22;4464;50.882;4.730;2024-03-07T09:05:26;8.30;99.90
8856;DHT22;4464;50.882;4.730;2024-03-07T09:07:55;8.20;99.90
8856;DHT22;4464;50.882;4.730;2024-03-07T09:10:21;8.50;99.90
8856;DHT22;4464;50.882;4.730;2024-03-07T09:12:49;9.30;99.90
8856;DHT22;4464;50.882;4.730;2024-03-07T09:15:15;10.30;99.90
8856;DHT22;4464;50.882;4.730;2024-03-07T09:17:49;11.30;99.90
8856;DHT22;4464;50.882;4.730;2024-03-07T09:20:17;12.20;99.90
8856;DHT22;4464;50.882;4.730;2024-03-07T09:22:47;13.00;99.90
8856;DHT22;4464;50.882;4.730;2024-03-07T09:25:17;13.20;99.90
8856;DHT22;4464;50.882;4.730;2024-03-07T09:27:44;13.50;99.90
8856;DHT22;4464;50.882;4.730;2024-03-07T09:30:10;13.40;99.90
8856;DHT22;4464;50.882;4.730;2024-03-07T09:32:47;13.40;99.90
8856;DHT22;4464;50.882;4.730;2024-03-07T09:35:14;12.90;99.90
8856;DHT22;4464;50.882;4.730;2024-03-07T09:37:43;13.00;99.90
8856;DHT22;4464;50.882;4.730;2024-03-07T09:40:11;13.50;99.90
8856;DHT22;4464;50.882;4.730;2024-03-07T09:42:49;14.20;99.90
8856;DHT22;4464;50.882;4.730;2024-03-07T09:45:21;14.20;99.90
8856;DHT22;4464;50.882;4.730;2024-03-07T09:47:49;14.40;99.90
8856;DHT22;4464;50.882;4.730;2024-03-07T09:50:20;14.50;99.90
8856;DHT22;4464;50.882;4.730;2024-03-07T09:52:49;14.60;99.90
8856;DHT22;4464;50.882;4.730;2024-03-07T09:55:19;14.60;99.90
8856;DHT22;4464;50.882;4.730;2024-03-07T09:57:49;15.10;99.90
8856;DHT22;4464;50.882;4.730;2024-03-07T10:00:19;14.90;99.90
8856;DHT22;4464;50.882;4.730;2024-03-07T10:03:10;15.10;99.90
8856;DHT22;4464;50.882;4.730;2024-03-07T10:05:40;15.10;99.90
8856;DHT22;4464;50.882;4.730;2024-03-07T10:08:09;15.50;99.90
8856;DHT22;4464;50.882;4.730;2024-03-07T10:10:36;15.80;99.90
8856;DHT22;4464;50.882;4.730;2024-03-07T10:13:03;16.10;99.40
8856;DHT22;4464;50.882;4.730;2024-03-07T10:15:32;16.30;98.90
8856;DHT22;4464;50.882;4.730;2024-03-07T10:17:59;16.10;98.50
8856;DHT22;4464;50.882;4.730;2024-03-07T10:20:30;15.70;98.50
8856;DHT22;4464;50.882;4.730;2024-03-07T10:22:56;15.40;98.80
8856;DHT22;4464;50.882;4.730;2024-03-07T10:25:25;15.60;99.20
8856;DHT22;4464;50.882;4.730;2024-03-07T10:27:54;16.10;98.90
8856;DHT22;4464;50.882;4.730;2024-03-07T10:30:20;16.30;97.90
8856;DHT22;4464;50.882;4.730;2024-03-07T10:32:47;16.00;98.60
8856;DHT22;4464;50.882;4.730;2024-03-07T10:35:14;15.90;98.00
8856;DHT22;4464;50.882;4.730;2024-03-07T10:37:47;16.30;98.40
8856;DHT22;4464;50.882;4.730;2024-03-07T10:40:16;16.40;97.80
8856;DHT22;4464;50.882;4.730;2024-03-07T10:42:46;16.40;97.70
8856;DHT22;4464;50.882;4.730;2024-03-07T10:45:21;16.60;98.20
8856;DHT22;4464;50.882;4.730;2024-03-07T10:47:57;16.80;96.80
8856;DHT22;4464;50.882;4.730;2024-03-07T10:53:31;16.20;97.00
8856;DHT22;4464;50.882;4.730;2024-03-07T10:58:42;16.00;97.20
8856;DHT22;4464;50.882;4.730;2024-03-07T11:01:13;15.90;96.20
8856;DHT22;4464;50.882;4.730;2024-03-07T11:03:42;14.90;96.90
8856;DHT22;4464;50.882;4.730;2024-03-07T11:06:11;14.70;98.10
8856;DHT22;4464;50.882;4.730;2024-03-07T11:08:39;14.30;97.70
8856;DHT22;4464;50.882;4.730;2024-03-07T11:11:05;14.30;98.60
8856;DHT22;4464;50.882;4.730;2024-03-07T11:13:35;14.50;97.90
8856;DHT22;4464;50.882;4.730;2024-03-07T11:16:04;14.20;98.10
8856;DHT22;4464;50.882;4.730;2024-03-07T11:18:31;13.70;98.50
8856;DHT22;4464;50.882;4.730;2024-03-07T11:20:57;13.00;98.70
8856;DHT22;4464;50.882;4.730;2024-03-07T11:23:29;12.70;99.40
8856;DHT22;4464;50.882;4.730;2024-03-07T11:26:08;13.20;99.30
8856;DHT22;4464;50.882;4.730;2024-03-07T11:28:40;13.50;98.70
8856;DHT22;4464;50.882;4.730;2024-03-07T11:31:33;12.90;98.40
8856;DHT22;4464;50.882;4.730;2024-03-07T11:34:16;12.30;99.40
8856;DHT22;4464;50.882;4.730;2024-03-07T11:36:46;11.90;99.90
8856;DHT22;4464;50.882;4.730;2024-03-07T11:39:47;12.20;99.90
8856;DHT22;4464;50.882;4.730;2024-03-07T11:44:51;15.20;97.60
8856;DHT22;4464;50.882;4.730;2024-03-07T11:47:18;15.90;95.90
8856;DHT22;4464;50.882;4.730;2024-03-07T11:49:45;16.40;94.80
8856;DHT22;4464;50.882;4.730;2024-03-07T11:52:16;16.20;94.90
8856;DHT22;4464;50.882;4.730;2024-03-07T11:54:43;17.00;95.00
8856;DHT22;4464;50.882;4.730;2024-03-07T11:57:15;16.90;94.40
8856;DHT22;4464;50.882;4.730;2024-03-07T11:59:43;16.50;94.80
8856;DHT22;4464;50.882;4.730;2024-03-07T12:02:13;16.50;94.20
8856;DHT22;4464;50.882;4.730;2024-03-07T12:04:42;15.40;95.10
8856;DHT22;4464;50.882;4.730;2024-03-07T12:07:11;16.40;95.10
8856;DHT22;4464;50.882;4.730;2024-03-07T12:09:38;16.70;93.30
8856;DHT22;4464;50.882;4.730;2024-03-07T12:12:05;17.60;92.90
8856;DHT22;4464;50.882;4.730;2024-03-07T12:14:36;17.80;92.10
8856;DHT22;4464;50.882;4.730;2024-03-07T12:17:02;17.90;92.20
8856;DHT22;4464;50.882;4.730;2024-03-07T12:19:34;17.80;91.70
8856;DHT22;4464;50.882;4.730;2024-03-07T12:22:07;18.30;90.50
8856;DHT22;4464;50.882;4.730;2024-03-07T12:24:42;17.40;90.70
8856;DHT22;4464;50.882;4.730;2024-03-07T12:27:10;16.80;90.60
8856;DHT22;4464;50.882;4.730;2024-03-07T12:29:37;16.30;91.70
8856;DHT22;4464;50.882;4.730;2024-03-07T12:32:14;16.70;91.80
8856;DHT22;4464;50.882;4.730;2024-03-07T12:34:43;17.50;91.80
8856;DHT22;4464;50.882;4.730;2024-03-07T12:37:14;18.00;90.50
8856;DHT22;4464;50.882;4.730;2024-03-07T12:39:45;16.20;90.30
8856;DHT22;4464;50.882;4.730;2024-03-07T12:42:18;14.60;92.20
8856;DHT22;4464;50.882;4.730;2024-03-07T12:44:46;15.30;93.20
8856;DHT22;4464;50.882;4.730;2024-03-07T12:47:13;16.80;92.20
8856;DHT22;4464;50.882;4.730;2024-03-07T12:49:43;18.20;90.40
8856;DHT22;4464;50.882;4.730;2024-03-07T12:52:09;18.80;88.90
8856;DHT22;4464;50.882;4.730;2024-03-07T12:54:38;18.40;88.80
8856;DHT22;4464;50.882;4.730;2024-03-07T12:57:13;18.60;87.40
8856;DHT22;4464;50.882;4.730;2024-03-07T12:59:41;18.20;86.50
8856;DHT22;4464;50.882;4.730;2024-03-07T13:02:10;18.40;88.10
8856;DHT22;4464;50.882;4.730;2024-03-07T13:04:39;18.60;87.80
8856;DHT22;4464;50.882;4.730;2024-03-07T13:07:08;18.40;87.50
8856;DHT22;4464;50.882;4.730;2024-03-07T13:09:34;18.40;87.30
8856;DHT22;4464;50.882;4.730;2024-03-07T13:12:01;17.70;88.30
8856;DHT22;4464;50.882;4.730;2024-03-07T13:14:35;17.00;88.30
8856;DHT22;4464;50.882;4.730;2024-03-07T13:17:02;15.90;90.10
8856;DHT22;4464;50.882;4.730;2024-03-07T13:19:32;16.60;90.40
8856;DHT22;4464;50.882;4.730;2024-03-07T13:21:58;17.70;90.00
8856;DHT22;4464;50.882;4.730;2024-03-07T13:24:27;18.10;88.50
8856;DHT22;4464;50.882;4.730;2024-03-07T13:26:53;17.70;86.90
8856;DHT22;4464;50.882;4.730;2024-03-07T13:29:22;16.80;89.10
8856;DHT22;4464;50.882;4.730;2024-03-07T13:31:51;16.60;89.20
8856;DHT22;4464;50.882;4.730;2024-03-07T13:34:24;17.00;88.50
8856;DHT22;4464;50.882;4.730;2024-03-07T13:36:54;16.80;86.60
8856;DHT22;4464;50.882;4.730;2024-03-07T13:39:24;16.40;87.20
8856;DHT22;4464;50.882;4.730;2024-03-07T13:41:50;16.30;86.80
8856;DHT22;4464;50.882;4.730;2024-03-07T13:44:16;16.10;87.10
8856;DHT22;4464;50.882;4.730;2024-03-07T13:46:44;16.80;86.70
8856;DHT22;4464;50.882;4.730;2024-03-07T13:49:10;18.10;85.30
8856;DHT22;4464;50.882;4.730;2024-03-07T13:51:40;18.20;83.70
8856;DHT22;4464;50.882;4.730;2024-03-07T13:54:17;18.20;81.60
8856;DHT22;4464;50.882;4.730;2024-03-07T13:59:45;17.70;82.50
8856;DHT22;4464;50.882;4.730;2024-03-07T14:11:08;18.50;82.00
8856;DHT22;4464;50.882;4.730;2024-03-07T14:27:35;19.30;76.60
8856;DHT22;4464;50.882;4.730;2024-03-07T14:32:53;18.90;78.00
8856;DHT22;4464;50.882;4.730;2024-03-07T14:35:31;18.70;77.60
8856;DHT22;4464;50.882;4.730;2024-03-07T14:40:54;18.10;79.80
8856;DHT22;4464;50.882;4.730;2024-03-07T14:43:23;18.40;78.10
8856;DHT22;4464;50.882;4.730;2024-03-07T14:45:49;18.00;79.30
8856;DHT22;4464;50.882;4.730;2024-03-07T14:48:17;18.40;79.60
8856;DHT22;4464;50.882;4.730;2024-03-07T14:50:45;18.30;78.30
8856;DHT22;4464;50.882;4.730;2024-03-07T14:53:15;17.70;79.20
8856;DHT22;4464;50.882;4.730;2024-03-07T14:55:45;18.10;79.90
8856;DHT22;4464;50.882;4.730;2024-03-07T14:58:14;17.90;78.80
8856;DHT22;4464;50.882;4.730;2024-03-07T15:00:42;18.00;79.10
8856;DHT22;4464;50.882;4.730;2024-03-07T15:03:15;18.20;78.00
8856;DHT22;4464;50.882;4.730;2024-03-07T15:05:43;18.20;77.10
8856;DHT22;4464;50.882;4.730;2024-03-07T15:08:11;18.00;77.30
8856;DHT22;4464;50.882;4.730;2024-03-07T15:10:42;18.00;77.80
8856;DHT22;4464;50.882;4.730;2024-03-07T15:13:12;17.90;77.60
8856;DHT22;4464;50.882;4.730;2024-03-07T15:15:39;18.10;78.00
8856;DHT22;4464;50.882;4.730;2024-03-07T15:18:06;17.60;76.50
8856;DHT22;4464;50.882;4.730;2024-03-07T15:20:32;17.30;78.30
8856;DHT22;4464;50.882;4.730;2024-03-07T15:23:01;17.60;77.40
8856;DHT22;4464;50.882;4.730;2024-03-07T15:25:33;17.00;77.80
8856;DHT22;4464;50.882;4.730;2024-03-07T15:28:00;17.10;78.60
8856;DHT22;4464;50.882;4.730;2024-03-07T15:30:28;17.40;78.30
8856;DHT22;4464;50.882;4.730;2024-03-07T15:33:06;17.20;78.10
8856;DHT22;4464;50.882;4.730;2024-03-07T15:35:35;17.80;77.20
8856;DHT22;4464;50.882;4.730;2024-03-07T15:38:00;18.00;76.70
8856;DHT22;4464;50.882;4.730;2024-03-07T15:40:26;17.80;77.00
8856;DHT22;4464;50.882;4.730;2024-03-07T15:42:55;17.70;76.70
8856;DHT22;4464;50.882;4.730;2024-03-07T15:45:24;17.60;76.80
8856;DHT22;4464;50.882;4.730;2024-03-07T15:50:22;17.00;76.10
8856;DHT22;4464;50.882;4.730;2024-03-07T15:52:50;16.80;77.40
8856;DHT22;4464;50.882;4.730;2024-03-07T15:55:22;16.80;76.90
8856;DHT22;4464;50.882;4.730;2024-03-07T15:57:52;16.70;77.60
8856;DHT22;4464;50.882;4.730;2024-03-07T16:00:25;16.80;77.60
8856;DHT22;4464;50.882;4.730;2024-03-07T16:02:55;17.00;78.00
8856;DHT22;4464;50.882;4.730;2024-03-07T16:05:24;16.90;78.30
8856;DHT22;4464;50.882;4.730;2024-03-07T16:07:51;16.60;79.00
8856;DHT22;4464;50.882;4.730;2024-03-07T16:10:23;16.40;78.80
8856;DHT22;4464;50.882;4.730;2024-03-07T16:12:53;16.10;79.80
8856;DHT22;4464;50.882;4.730;2024-03-07T16:15:22;15.50;79.90
8856;DHT22;4464;50.882;4.730;2024-03-07T16:17:51;15.80;80.10
8856;DHT22;4464;50.882;4.730;2024-03-07T16:20:22;15.70;80.80
8856;DHT22;4464;50.882;4.730;2024-03-07T16:22:48;15.70;80.50
8856;DHT22;4464;50.882;4.730;2024-03-07T16:25:15;15.30;81.20
8856;DHT22;4464;50.882;4.730;2024-03-07T16:27:43;15.20;81.10
8856;DHT22;4464;50.882;4.730;2024-03-07T16:30:13;15.00;82.30
8856;DHT22;4464;50.882;4.730;2024-03-07T16:32:42;15.20;82.40
8856;DHT22;4464;50.882;4.730;2024-03-07T16:35:11;15.30;82.90
8856;DHT22;4464;50.882;4.730;2024-03-07T16:37:44;15.00;82.20
8856;DHT22;4464;50.882;4.730;2024-03-07T16:40:19;14.70;82.80
8856;DHT22;4464;50.882;4.730;2024-03-07T16:42:49;13.80;83.60
8856;DHT22;4464;50.882;4.730;2024-03-07T16:45:19;13.00;85.40
8856;DHT22;4464;50.882;4.730;2024-03-07T16:47:47;12.60;87.00
8856;DHT22;4464;50.882;4.730;2024-03-07T16:50:18;12.30;88.40
8856;DHT22;4464;50.882;4.730;2024-03-07T16:52:44;12.20;89.00
8856;DHT22;4464;50.882;4.730;2024-03-07T16:55:16;12.00;90.00
8856;DHT22;4464;50.882;4.730;2024-03-07T16:57:53;11.70;90.10
8856;DHT22;4464;50.882;4.730;2024-03-07T17:00:21;11.60;90.20
8856;DHT22;4464;50.882;4.730;2024-03-07T17:03:02;11.40;90.50